sensor_id;sensor_type;location;lat;lon;timestamp;pressure;altitude;pressure_sealevel;temperature;humidity
76156;BME280;64906;51.290;7.348;2023-02-01T00:01:46;99232.66;;;17.92;63.20
76156;BME280;64906;51.290;7.348;2023-02-01T00:04:12;99228.31;;;17.91;63.27
76156;BME280;64906;51.290;7.348;2023-02-01T00:06:38;99226.13;;;17.93;63.44
76156;BME280;64906;51.290;7.348;2023-02-01T00:09:05;99224.47;;;17.92;63.33
76156;BME280;64906;51.290;7.348;2023-02-01T00:11:30;99226.41;;;17.92;63.22
76156;BME280;64906;51.290;7.348;2023-02-01T00:13:57;99222.53;;;17.88;63.49
76156;BME280;64906;51.290;7.348;2023-02-01T00:16:27;99219.81;;;17.88;63.29
76156;BME280;64906;51.290;7.348;2023-02-01T00:19:05;99225.56;;;17.91;63.37
76156;BME280;64906;51.290;7.348;2023-02-01T00:21:32;99220.63;;;17.88;63.41
76156;BME280;64906;51.290;7.348;2023-02-01T00:23:58;99214.88;;;17.85;63.33
76156;BME280;64906;51.290;7.348;2023-02-01T00:26:36;99222.28;;;17.89;63.14
76156;BME280;64906;51.290;7.348;2023-02-01T00:29:05;99219.53;;;17.89;63.33
76156;BME280;64906;51.290;7.348;2023-02-01T00:31:31;99217.34;;;17.86;63.33
76156;BME280;64906;51.290;7.348;2023-02-01T00:33:57;99217.09;;;17.93;63.53
76156;BME280;64906;51.290;7.348;2023-02-01T00:36:23;99214.66;;;17.91;63.45
76156;BME280;64906;51.290;7.348;2023-02-01T00:38:49;99214.91;;;17.90;63.37
76156;BME280;64906;51.290;7.348;2023-02-01T00:41:18;99212.19;;;17.90;63.56
76156;BME280;64906;51.290;7.348;2023-02-01T00:43:45;99208.63;;;17.89;63.26
76156;BME280;64906;51.290;7.348;2023-02-01T00:46:13;99198.22;;;17.86;63.39
76156;BME280;64906;51.290;7.348;2023-02-01T00:48:39;99202.34;;;17.89;63.41
76156;BME280;64906;51.290;7.348;2023-02-01T00:51:08;99200.13;;;17.86;63.35
76156;BME280;64906;51.290;7.348;2023-02-01T00:53:35;99199.88;;;17.87;63.41
76156;BME280;64906;51.290;7.348;2023-02-01T00:56:01;99202.34;;;17.89;63.51
76156;BME280;64906;51.290;7.348;2023-02-01T00:58:27;99188.66;;;17.84;63.58
76156;BME280;64906;51.290;7.348;2023-02-01T01:01:09;99196.06;;;17.88;63.22
76156;BME280;64906;51.290;7.348;2023-02-01T01:03:46;99188.66;;;17.84;63.48
76156;BME280;64906;51.290;7.348;2023-02-01T01:06:17;99182.09;;;17.80;63.51
76156;BME280;64906;51.290;7.348;2023-02-01T01:08:43;99190.59;;;17.88;63.33
76156;BME280;64906;51.290;7.348;2023-02-01T01:11:17;99183.75;;;17.86;63.66
76156;BME280;64906;51.290;7.348;2023-02-01T01:13:46;99175.81;;;17.84;63.55
76156;BME280;64906;51.290;7.348;2023-02-01T01:16:13;99182.13;;;17.90;63.48
76156;BME280;64906;51.290;7.348;2023-02-01T01:18:40;99179.41;;;17.90;63.39
76156;BME280;64906;51.290;7.348;2023-02-01T01:21:07;99176.66;;;17.85;63.63
76156;BME280;64906;51.290;7.348;2023-02-01T01:23:34;99180.22;;;17.85;63.57
76156;BME280;64906;51.290;7.348;2023-02-01T01:26:05;99173.34;;;17.83;63.53
76156;BME280;64906;51.290;7.348;2023-02-01T01:28:31;99179.13;;;17.86;63.73
76156;BME280;64906;51.290;7.348;2023-02-01T01:30:57;99170.91;;;17.86;63.72
76156;BME280;64906;51.290;7.348;2023-02-01T01:33:23;99165.72;;;17.85;63.73
76156;BME280;64906;51.290;7.348;2023-02-01T01:35:49;99164.13;;;17.89;63.61
76156;BME280;64906;51.290;7.348;2023-02-01T01:38:15;99166.81;;;17.84;63.53
76156;BME280;64906;51.290;7.348;2023-02-01T01:40:44;99171.47;;;17.88;63.65
76156;BME280;64906;51.290;7.348;2023-02-01T01:43:15;99170.09;;;17.86;63.71
76156;BME280;64906;51.290;7.348;2023-02-01T01:45:42;99177.78;;;17.89;63.52
76156;BME280;64906;51.290;7.348;2023-02-01T01:48:29;99170.34;;;17.84;63.45
76156;BME280;64906;51.290;7.348;2023-02-01T01:51:08;99161.09;;;17.85;63.48
76156;BME280;64906;51.290;7.348;2023-02-01T01:53:45;99165.72;;;17.85;63.74
76156;BME280;64906;51.290;7.348;2023-02-01T01:56:14;99167.88;;;17.83;63.74
76156;BME280;64906;51.290;7.348;2023-02-01T01:58:40;99170.34;;;17.84;63.61
76156;BME280;64906;51.290;7.348;2023-02-01T02:01:07;99157.53;;;17.85;63.72
76156;BME280;64906;51.290;7.348;2023-02-01T02:03:39;99154.25;;;17.83;63.61
76156;BME280;64906;51.290;7.348;2023-02-01T02:06:51;99156.19;;;17.87;63.55
76156;BME280;64906;51.290;7.348;2023-02-01T02:08:56;99161.63;;;17.82;63.87
76156;BME280;64906;51.290;7.348;2023-02-01T02:11:22;99148.25;;;17.81;63.68
76156;BME280;64906;51.290;7.348;2023-02-01T02:13:53;99144.94;;;17.79;63.94
76156;BME280;64906;51.290;7.348;2023-02-01T02:16:40;99144.41;;;17.82;63.78
76156;BME280;64906;51.290;7.348;2023-02-01T02:33:45;99131.59;;;17.82;64.03
76156;BME280;64906;51.290;7.348;2023-02-01T02:39:05;99127.75;;;17.78;63.78
76156;BME280;64906;51.290;7.348;2023-02-01T02:41:59;99121.75;;;17.81;63.92
76156;BME280;64906;51.290;7.348;2023-02-01T02:45:20;99112.72;;;17.76;63.97
76156;BME280;64906;51.290;7.348;2023-02-01T02:48:26;99121.44;;;17.78;64.03
76156;BME280;64906;51.290;7.348;2023-02-01T02:51:21;99119.28;;;17.80;64.40
76156;BME280;64906;51.290;7.348;2023-02-01T02:54:13;99120.91;;;17.76;64.18
76156;BME280;64906;51.290;7.348;2023-02-01T02:56:59;99110.00;;;17.76;64.23
76156;BME280;64906;51.290;7.348;2023-02-01T02:59:49;99111.91;;;17.80;64.26
76156;BME280;64906;51.290;7.348;2023-02-01T03:02:34;99120.94;;;17.81;64.17
76156;BME280;64906;51.290;7.348;2023-02-01T03:05:19;99115.47;;;17.81;64.43
76156;BME280;64906;51.290;7.348;2023-02-01T03:07:55;99108.88;;;17.77;64.20
76156;BME280;64906;51.290;7.348;2023-02-01T03:13:23;99107.25;;;17.76;64.54
76156;BME280;64906;51.290;7.348;2023-02-01T03:16:12;99112.72;;;17.76;64.47
76156;BME280;64906;51.290;7.348;2023-02-01T03:21:21;99104.25;;;17.72;64.38
76156;BME280;64906;51.290;7.348;2023-02-01T03:23:51;99100.41;;;17.73;64.40
76156;BME280;64906;51.290;7.348;2023-02-01T03:26:20;99101.50;;;17.72;64.25
76156;BME280;64906;51.290;7.348;2023-02-01T03:28:55;99104.81;;;17.74;64.15
76156;BME280;64906;51.290;7.348;2023-02-01T03:31:23;99100.69;;;17.72;64.34
76156;BME280;64906;51.290;7.348;2023-02-01T03:33:50;99094.38;;;17.71;64.20
76156;BME280;64906;51.290;7.348;2023-02-01T03:36:39;99097.41;;;17.75;64.10
76156;BME280;64906;51.290;7.348;2023-02-01T03:39:15;99100.13;;;17.75;64.50
76156;BME280;64906;51.290;7.348;2023-02-01T03:41:51;99093.03;;;17.74;64.50
76156;BME280;64906;51.290;7.348;2023-02-01T03:44:51;99093.34;;;17.77;64.36
76156;BME280;64906;51.290;7.348;2023-02-01T03:47:27;99091.38;;;17.73;64.43
76156;BME280;64906;51.290;7.348;2023-02-01T03:49:59;99094.13;;;17.73;64.35
76156;BME280;64906;51.290;7.348;2023-02-01T03:52:32;99088.13;;;17.71;64.21
76156;BME280;64906;51.290;7.348;2023-02-01T03:55:01;99092.22;;;17.73;64.11
76156;BME280;64906;51.290;7.348;2023-02-01T03:57:33;99081.84;;;17.70;64.26
76156;BME280;64906;51.290;7.348;2023-02-01T04:00:24;99084.03;;;17.73;64.20
76156;BME280;64906;51.290;7.348;2023-02-01T04:02:52;99077.97;;;17.66;64.24
76156;BME280;64906;51.290;7.348;2023-02-01T04:05:19;99091.94;;;17.75;64.06
76156;BME280;64906;51.290;7.348;2023-02-01T04:07:45;99078.28;;;17.70;64.15
76156;BME280;64906;51.290;7.348;2023-02-01T04:10:11;99084.56;;;17.70;64.13
76156;BME280;64906;51.290;7.348;2023-02-01T04:12:39;99078.53;;;17.68;64.54
76156;BME280;64906;51.290;7.348;2023-02-01T04:15:05;99071.44;;;17.67;64.14
76156;BME280;64906;51.290;7.348;2023-02-01T04:17:31;99077.22;;;17.71;64.30
76156;BME280;64906;51.290;7.348;2023-02-01T04:19:57;99067.34;;;17.70;64.10
76156;BME280;64906;51.290;7.348;2023-02-01T04:22:23;99066.25;;;17.66;64.12
76156;BME280;64906;51.290;7.348;2023-02-01T04:24:49;99066.81;;;17.68;64.21
76156;BME280;64906;51.290;7.348;2023-02-01T04:27:15;99072.00;;;17.69;64.45
76156;BME280;64906;51.290;7.348;2023-02-01T04:29:41;99063.25;;;17.67;64.19
76156;BME280;64906;51.290;7.348;2023-02-01T04:32:07;99063.81;;;17.69;64.36
76156;BME280;64906;51.290;7.348;2023-02-01T04:34:32;99068.19;;;17.70;64.30
76156;BME280;64906;51.290;7.348;2023-02-01T04:36:58;99057.53;;;17.69;64.51
76156;BME280;64906;51.290;7.348;2023-02-01T04:39:24;99062.44;;;17.72;64.14
76156;BME280;64906;51.290;7.348;2023-02-01T04:41:50;99064.06;;;17.63;64.57
76156;BME280;64906;51.290;7.348;2023-02-01T04:44:17;99065.16;;;17.67;64.46
76156;BME280;64906;51.290;7.348;2023-02-01T04:46:45;99071.72;;;17.66;64.29
76156;BME280;64906;51.290;7.348;2023-02-01T04:49:12;99060.81;;;17.66;64.37
76156;BME280;64906;51.290;7.348;2023-02-01T04:51:38;99068.72;;;17.67;64.30
76156;BME280;64906;51.290;7.348;2023-02-01T04:54:04;99071.19;;;17.69;64.43
76156;BME280;64906;51.290;7.348;2023-02-01T04:56:30;99059.97;;;17.65;64.31
76156;BME280;64906;51.290;7.348;2023-02-01T04:58:56;99063.53;;;17.66;64.77
76156;BME280;64906;51.290;7.348;2023-02-01T05:01:22;99069.78;;;17.66;64.55
76156;BME280;64906;51.290;7.348;2023-02-01T05:03:50;99070.63;;;17.72;64.72
76156;BME280;64906;51.290;7.348;2023-02-01T05:06:17;99069.00;;;17.71;64.36
76156;BME280;64906;51.290;7.348;2023-02-01T05:08:43;99062.44;;;17.72;64.50
76156;BME280;64906;51.290;7.348;2023-02-01T05:11:08;99061.09;;;17.69;64.40
76156;BME280;64906;51.290;7.348;2023-02-01T05:13:54;99062.72;;;17.70;64.20
76156;BME280;64906;51.290;7.348;2023-02-01T05:16:20;99056.94;;;17.62;64.41
76156;BME280;64906;51.290;7.348;2023-02-01T05:18:46;99056.97;;;17.67;64.59
76156;BME280;64906;51.290;7.348;2023-02-01T05:21:11;99043.56;;;17.60;64.69
76156;BME280;64906;51.290;7.348;2023-02-01T05:23:38;99044.41;;;17.61;64.75
76156;BME280;64906;51.290;7.348;2023-02-01T05:26:24;99044.69;;;17.64;64.85
76156;BME280;64906;51.290;7.348;2023-02-01T05:28:50;99047.72;;;17.68;64.41
76156;BME280;64906;51.290;7.348;2023-02-01T05:31:16;99042.78;;;17.70;64.54
76156;BME280;64906;51.290;7.348;2023-02-01T05:33:42;99052.63;;;17.66;64.60
76156;BME280;64906;51.290;7.348;2023-02-01T05:36:08;99048.22;;;17.65;64.68
76156;BME280;64906;51.290;7.348;2023-02-01T05:38:34;99045.19;;;17.61;64.63
76156;BME280;64906;51.290;7.348;2023-02-01T05:40:59;99053.94;;;17.58;64.77
76156;BME280;64906;51.290;7.348;2023-02-01T05:43:25;99054.75;;;17.59;64.71
76156;BME280;64906;51.290;7.348;2023-02-01T05:45:52;99057.50;;;17.59;64.72
76156;BME280;64906;51.290;7.348;2023-02-01T05:48:18;99055.31;;;17.61;64.58
76156;BME280;64906;51.290;7.348;2023-02-01T05:50:44;99053.16;;;17.63;64.95
76156;BME280;64906;51.290;7.348;2023-02-01T05:53:09;99053.94;;;17.63;64.50
76156;BME280;64906;51.290;7.348;2023-02-01T05:55:36;99061.34;;;17.63;64.60
76156;BME280;64906;51.290;7.348;2023-02-01T05:58:03;99051.50;;;17.62;64.63
76156;BME280;64906;51.290;7.348;2023-02-01T06:00:29;99062.13;;;17.63;64.82
76156;BME280;64906;51.290;7.348;2023-02-01T06:02:55;99059.13;;;17.65;64.70
76156;BME280;64906;51.290;7.348;2023-02-01T06:05:21;99061.56;;;17.61;64.80
76156;BME280;64906;51.290;7.348;2023-02-01T06:07:46;99060.50;;;17.62;64.52
76156;BME280;64906;51.290;7.348;2023-02-01T06:10:13;99062.13;;;17.63;64.63
76156;BME280;64906;51.290;7.348;2023-02-01T06:12:38;99056.94;;;17.62;64.57
76156;BME280;64906;51.290;7.348;2023-02-01T06:15:05;99057.78;;;17.62;64.65
76156;BME280;64906;51.290;7.348;2023-02-01T06:17:31;99068.69;;;17.62;64.77
76156;BME280;64906;51.290;7.348;2023-02-01T06:19:57;99068.16;;;17.65;64.74
76156;BME280;64906;51.290;7.348;2023-02-01T06:22:23;99068.69;;;17.62;64.47
76156;BME280;64906;51.290;7.348;2023-02-01T06:24:48;99067.88;;;17.62;64.75
76156;BME280;64906;51.290;7.348;2023-02-01T06:27:15;99064.88;;;17.63;64.83
76156;BME280;64906;51.290;7.348;2023-02-01T06:29:41;99060.22;;;17.59;64.76
76156;BME280;64906;51.290;7.348;2023-02-01T06:32:07;99061.56;;;17.61;64.68
76156;BME280;64906;51.290;7.348;2023-02-01T06:34:33;99067.84;;;17.57;65.14
76156;BME280;64906;51.290;7.348;2023-02-01T06:36:59;99064.56;;;17.60;64.76
76156;BME280;64906;51.290;7.348;2023-02-01T06:39:25;99074.16;;;17.62;64.40
76156;BME280;64906;51.290;7.348;2023-02-01T06:41:52;99074.16;;;17.62;64.63
76156;BME280;64906;51.290;7.348;2023-02-01T06:44:18;99072.50;;;17.61;65.01
76156;BME280;64906;51.290;7.348;2023-02-01T06:46:44;99066.78;;;17.58;64.95
76156;BME280;64906;51.290;7.348;2023-02-01T06:49:10;99071.97;;;17.59;64.78
76156;BME280;64906;51.290;7.348;2023-02-01T06:51:35;99066.78;;;17.58;65.25
76156;BME280;64906;51.290;7.348;2023-02-01T06:54:01;99074.97;;;17.58;65.18
76156;BME280;64906;51.290;7.348;2023-02-01T06:56:27;99071.94;;;17.54;65.38
76156;BME280;64906;51.290;7.348;2023-02-01T06:58:53;99079.31;;;17.59;65.16
76156;BME280;64906;51.290;7.348;2023-02-01T07:01:19;99071.97;;;17.59;64.94
76156;BME280;64906;51.290;7.348;2023-02-01T07:03:49;99077.69;;;17.58;65.10
76156;BME280;64906;51.290;7.348;2023-02-01T07:06:16;99081.50;;;17.57;64.62
76156;BME280;64906;51.290;7.348;2023-02-01T07:08:42;99085.06;;;17.57;65.05
76156;BME280;64906;51.290;7.348;2023-02-01T07:11:10;99099.53;;;17.58;65.19
76156;BME280;64906;51.290;7.348;2023-02-01T07:13:37;99105.25;;;17.56;65.27
76156;BME280;64906;51.290;7.348;2023-02-01T07:16:10;99101.66;;;17.46;65.29
76156;BME280;64906;51.290;7.348;2023-02-01T07:18:37;99118.63;;;17.58;65.19
76156;BME280;64906;51.290;7.348;2023-02-01T07:21:02;99112.09;;;17.59;65.14
76156;BME280;64906;51.290;7.348;2023-02-01T07:23:29;99106.31;;;17.55;65.19
76156;BME280;64906;51.290;7.348;2023-02-01T07:26:00;99111.78;;;17.55;65.29
76156;BME280;64906;51.290;7.348;2023-02-01T07:28:28;99122.97;;;17.54;65.50
76156;BME280;64906;51.290;7.348;2023-02-01T07:30:54;99113.16;;;17.53;65.42
76156;BME280;64906;51.290;7.348;2023-02-01T07:33:21;99126.28;;;17.56;65.45
76156;BME280;64906;51.290;7.348;2023-02-01T07:35:49;99122.97;;;17.54;65.32
76156;BME280;64906;51.290;7.348;2023-02-01T07:38:15;99133.06;;;17.53;65.43
76156;BME280;64906;51.290;7.348;2023-02-01T07:40:41;99127.88;;;17.52;65.54
76156;BME280;64906;51.290;7.348;2023-02-01T07:43:07;99133.91;;;17.54;65.37
76156;BME280;64906;51.290;7.348;2023-02-01T07:45:34;99128.13;;;17.50;65.32
76156;BME280;64906;51.290;7.348;2023-02-01T07:48:02;99139.34;;;17.54;65.38
76156;BME280;64906;51.290;7.348;2023-02-01T07:50:28;99141.75;;;17.45;65.44
76156;BME280;64906;51.290;7.348;2023-02-01T07:52:54;99131.59;;;17.40;65.56
76156;BME280;64906;51.290;7.348;2023-02-01T07:55:20;99142.53;;;17.40;65.52
76156;BME280;64906;51.290;7.348;2023-02-01T07:57:47;99148.81;;;17.41;65.82
76156;BME280;64906;51.290;7.348;2023-02-01T08:00:13;99151.28;;;17.42;65.59
76156;BME280;64906;51.290;7.348;2023-02-01T08:02:58;99154.81;;;17.38;65.44
76156;BME280;64906;51.290;7.348;2023-02-01T08:05:25;99168.44;;;17.38;66.00
76156;BME280;64906;51.290;7.348;2023-02-01T08:07:51;99164.88;;;17.37;65.96
76156;BME280;64906;51.290;7.348;2023-02-01T08:10:18;99174.72;;;17.38;66.02
76156;BME280;64906;51.290;7.348;2023-02-01T08:12:44;99180.19;;;17.43;65.59
76156;BME280;64906;51.290;7.348;2023-02-01T08:15:16;99170.13;;;17.44;65.29
76156;BME280;64906;51.290;7.348;2023-02-01T08:17:49;99181.38;;;17.48;65.35
76156;BME280;64906;51.290;7.348;2023-02-01T08:20:17;99186.00;;;17.47;65.42
76156;BME280;64906;51.290;7.348;2023-02-01T08:22:43;99190.13;;;17.50;65.35
76156;BME280;64906;51.290;7.348;2023-02-01T08:25:09;99185.16;;;17.47;65.50
76156;BME280;64906;51.290;7.348;2023-02-01T08:27:36;99190.13;;;17.50;65.26
76156;BME280;64906;51.290;7.348;2023-02-01T08:30:04;99187.63;;;17.48;64.98
76156;BME280;64906;51.290;7.348;2023-02-01T08:32:30;99201.03;;;17.50;65.14
76156;BME280;64906;51.290;7.348;2023-02-01T08:34:56;99204.88;;;17.54;64.88
76156;BME280;64906;51.290;7.348;2023-02-01T08:37:21;99199.06;;;17.45;64.92
76156;BME280;64906;51.290;7.348;2023-02-01T08:39:47;99210.28;;;17.49;64.92
76156;BME280;64906;51.290;7.348;2023-02-01T08:42:16;99217.41;;;17.55;64.65
76156;BME280;64906;51.290;7.348;2023-02-01T08:45:01;99216.13;;;17.62;64.47
76156;BME280;64906;51.290;7.348;2023-02-01T08:47:28;99220.50;;;17.68;64.32
76156;BME280;64906;51.290;7.348;2023-02-01T08:49:54;99223.25;;;17.68;63.96
76156;BME280;64906;51.290;7.348;2023-02-01T08:52:20;99224.66;;;17.71;63.86
76156;BME280;64906;51.290;7.348;2023-02-01T08:54:46;99219.72;;;17.73;63.81
76156;BME280;64906;51.290;7.348;2023-02-01T08:57:12;99231.19;;;17.75;63.60
76156;BME280;64906;51.290;7.348;2023-02-01T08:59:38;99238.59;;;17.79;63.54
76156;BME280;64906;51.290;7.348;2023-02-01T09:02:04;99236.13;;;17.78;63.54
76156;BME280;64906;51.290;7.348;2023-02-01T09:04:30;99231.78;;;17.77;63.60
76156;BME280;64906;51.290;7.348;2023-02-01T09:06:56;99232.88;;;17.76;63.77
76156;BME280;64906;51.290;7.348;2023-02-01T09:09:23;99243.81;;;17.81;63.31
76156;BME280;64906;51.290;7.348;2023-02-01T09:11:49;99246.03;;;17.84;63.50
76156;BME280;64906;51.290;7.348;2023-02-01T09:14:18;99244.09;;;17.84;63.22
76156;BME280;64906;51.290;7.348;2023-02-01T09:16:44;99245.50;;;17.87;63.08
76156;BME280;64906;51.290;7.348;2023-02-01T09:19:09;99241.63;;;17.83;63.38
76156;BME280;64906;51.290;7.348;2023-02-01T09:21:35;99248.75;;;17.84;63.18
76156;BME280;64906;51.290;7.348;2023-02-01T09:24:02;99252.84;;;17.86;63.08
76156;BME280;64906;51.290;7.348;2023-02-01T09:26:27;99258.03;;;17.88;62.99
76156;BME280;64906;51.290;7.348;2023-02-01T09:28:53;99265.72;;;17.91;62.92
76156;BME280;64906;51.290;7.348;2023-02-01T09:31:19;99261.91;;;17.92;63.00
76156;BME280;64906;51.290;7.348;2023-02-01T09:33:45;99264.41;;;17.98;62.77
76156;BME280;64906;51.290;7.348;2023-02-01T09:36:11;99266.34;;;18.03;62.64
76156;BME280;64906;51.290;7.348;2023-02-01T09:38:36;99266.88;;;18.00;62.54
76156;BME280;64906;51.290;7.348;2023-02-01T09:41:22;99275.41;;;18.08;62.72
76156;BME280;64906;51.290;7.348;2023-02-01T09:44:03;99278.94;;;18.14;62.72
76156;BME280;64906;51.290;7.348;2023-02-01T09:46:33;99279.44;;;18.01;61.68
76156;BME280;64906;51.290;7.348;2023-02-01T09:49:27;99279.50;;;18.11;61.55
76156;BME280;64906;51.290;7.348;2023-02-01T09:51:52;99290.94;;;18.08;61.95
76156;BME280;64906;51.290;7.348;2023-02-01T09:54:23;99284.13;;;18.10;61.64
76156;BME280;64906;51.290;7.348;2023-02-01T09:57:04;99282.25;;;18.16;61.65
76156;BME280;64906;51.290;7.348;2023-02-01T09:59:43;99299.75;;;18.15;61.84
76156;BME280;64906;51.290;7.348;2023-02-01T10:02:18;99293.72;;;18.13;61.61
76156;BME280;64906;51.290;7.348;2023-02-01T10:04:47;99293.06;;;17.96;59.92
76156;BME280;64906;51.290;7.348;2023-02-01T10:10:13;99293.47;;;18.19;59.09
76156;BME280;64906;51.290;7.348;2023-02-01T10:12:56;99299.81;;;18.25;59.45
76156;BME280;64906;51.290;7.348;2023-02-01T10:18:36;99297.91;;;18.30;59.63
76156;BME280;64906;51.290;7.348;2023-02-01T10:24:17;99312.63;;;18.24;59.57
76156;BME280;64906;51.290;7.348;2023-02-01T10:26:59;99311.56;;;18.30;59.47
76156;BME280;64906;51.290;7.348;2023-02-01T10:29:33;99326.94;;;18.36;59.63
76156;BME280;64906;51.290;7.348;2023-02-01T10:32:01;99329.69;;;18.41;59.32
76156;BME280;64906;51.290;7.348;2023-02-01T10:34:31;99325.59;;;18.39;59.51
76156;BME280;64906;51.290;7.348;2023-02-01T10:37:30;99329.44;;;18.43;59.69
76156;BME280;64906;51.290;7.348;2023-02-01T10:40:00;99328.88;;;18.41;59.70
76156;BME280;64906;51.290;7.348;2023-02-01T10:42:29;99342.03;;;18.49;59.79
76156;BME280;64906;51.290;7.348;2023-02-01T10:45:00;99340.66;;;18.51;59.71
76156;BME280;64906;51.290;7.348;2023-02-01T10:47:28;99348.06;;;18.51;59.83
76156;BME280;64906;51.290;7.348;2023-02-01T10:50:15;99356.00;;;18.52;60.03
76156;BME280;64906;51.290;7.348;2023-02-01T10:52:51;99353.50;;;18.46;60.28
76156;BME280;64906;51.290;7.348;2023-02-01T10:58:04;99350.84;;;18.56;59.88
76156;BME280;64906;51.290;7.348;2023-02-01T11:00:43;99352.19;;;18.58;59.45
76156;BME280;64906;51.290;7.348;2023-02-01T11:03:39;99351.38;;;18.58;59.40
76156;BME280;64906;51.290;7.348;2023-02-01T11:09:01;99348.63;;;18.58;59.47
76156;BME280;64906;51.290;7.348;2023-02-01T11:14:25;99362.63;;;18.66;59.04
76156;BME280;64906;51.290;7.348;2023-02-01T11:16:59;99357.97;;;18.62;59.03
76156;BME280;64906;51.290;7.348;2023-02-01T11:19:28;99352.53;;;18.67;59.12
76156;BME280;64906;51.290;7.348;2023-02-01T11:21:57;99346.50;;;18.70;59.04
76156;BME280;64906;51.290;7.348;2023-02-01T11:26:56;99343.47;;;18.66;59.03
76156;BME280;64906;51.290;7.348;2023-02-01T11:29:24;99344.59;;;18.70;58.84
76156;BME280;64906;51.290;7.348;2023-02-01T11:31:59;99344.31;;;18.67;58.92
76156;BME280;64906;51.290;7.348;2023-02-01T11:34:38;99345.41;;;18.71;58.70
76156;BME280;64906;51.290;7.348;2023-02-01T11:37:18;99340.47;;;18.68;58.63
76156;BME280;64906;51.290;7.348;2023-02-01T11:39:57;99345.69;;;18.74;58.69
76156;BME280;64906;51.290;7.348;2023-02-01T11:42:23;99347.09;;;18.77;58.65
76156;BME280;64906;51.290;7.348;2023-02-01T11:44:50;99349.00;;;18.77;58.31
76156;BME280;64906;51.290;7.348;2023-02-01T11:47:30;99339.16;;;18.76;58.54
76156;BME280;64906;51.290;7.348;2023-02-01T11:49:59;99344.88;;;18.79;58.30
76156;BME280;64906;51.290;7.348;2023-02-01T11:52:38;99339.69;;;18.77;58.19
76156;BME280;64906;51.290;7.348;2023-02-01T12:07:05;99317.56;;;18.84;57.94
76156;BME280;64906;51.290;7.348;2023-02-01T12:12:06;99319.50;;;18.89;58.02
76156;BME280;64906;51.290;7.348;2023-02-01T12:14:48;99311.56;;;18.87;57.73
76156;BME280;64906;51.290;7.348;2023-02-01T12:17:41;99315.94;;;18.88;57.63
76156;BME280;64906;51.290;7.348;2023-02-01T12:20:51;99336.19;;;18.87;57.79
76156;BME280;64906;51.290;7.348;2023-02-01T12:29:32;99310.44;;;18.83;57.92
76156;BME280;64906;51.290;7.348;2023-02-01T12:35:02;99304.75;;;19.00;57.50
76156;BME280;64906;51.290;7.348;2023-02-01T12:43:21;99280.41;;;18.98;57.38
76156;BME280;64906;51.290;7.348;2023-02-01T12:45:58;99291.06;;;19.00;57.23
76156;BME280;64906;51.290;7.348;2023-02-01T12:48:37;99286.94;;;18.97;57.01
76156;BME280;64906;51.290;7.348;2023-02-01T12:51:13;99284.50;;;19.01;57.20
76156;BME280;64906;51.290;7.348;2023-02-01T12:56:42;99285.34;;;19.06;57.11
76156;BME280;64906;51.290;7.348;2023-02-01T13:01:56;99284.22;;;19.07;57.03
76156;BME280;64906;51.290;7.348;2023-02-01T13:04:53;99282.06;;;19.09;56.84
76156;BME280;64906;51.290;7.348;2023-02-01T13:10:45;99262.34;;;19.12;56.98
76156;BME280;64906;51.290;7.348;2023-02-01T13:13:19;99229.22;;;19.09;57.05
76156;BME280;64906;51.290;7.348;2023-02-01T13:18:20;99219.69;;;19.11;56.92
76156;BME280;64906;51.290;7.348;2023-02-01T13:20:55;99235.28;;;19.16;56.88
76156;BME280;64906;51.290;7.348;2023-02-01T13:23:29;99217.50;;;19.13;57.09
76156;BME280;64906;51.290;7.348;2023-02-01T13:25:57;99201.88;;;19.14;57.00
76156;BME280;64906;51.290;7.348;2023-02-01T13:28:32;99204.34;;;19.15;57.10
76156;BME280;64906;51.290;7.348;2023-02-01T13:31:29;99213.09;;;19.22;56.65
76156;BME280;64906;51.290;7.348;2023-02-01T13:42:26;99214.22;;;19.21;56.67
76156;BME280;64906;51.290;7.348;2023-02-01T13:45:03;99214.22;;;19.21;56.96
76156;BME280;64906;51.290;7.348;2023-02-01T13:47:38;99206.28;;;19.20;56.75
76156;BME280;64906;51.290;7.348;2023-02-01T13:50:28;99205.72;;;19.23;56.75
76156;BME280;64906;51.290;7.348;2023-02-01T13:52:58;99204.88;;;19.27;56.68
76156;BME280;64906;51.290;7.348;2023-02-01T13:55:29;99207.91;;;19.26;56.85
76156;BME280;64906;51.290;7.348;2023-02-01T13:58:05;99199.41;;;19.27;56.53
76156;BME280;64906;51.290;7.348;2023-02-01T14:00:38;99194.53;;;19.29;56.42
76156;BME280;64906;51.290;7.348;2023-02-01T14:10:46;99188.50;;;19.32;56.46
76156;BME280;64906;51.290;7.348;2023-02-01T14:23:43;99195.03;;;19.36;56.16
76156;BME280;64906;51.290;7.348;2023-02-01T14:26:14;99194.53;;;19.39;56.51
76156;BME280;64906;51.290;7.348;2023-02-01T14:28:47;99193.97;;;19.42;56.07
76156;BME280;64906;51.290;7.348;2023-02-01T14:34:31;99196.41;;;19.44;56.29
76156;BME280;64906;51.290;7.348;2023-02-01T14:37:04;99187.38;;;19.43;56.05
76156;BME280;64906;51.290;7.348;2023-02-01T14:44:49;99187.94;;;19.45;56.04
76156;BME280;64906;51.290;7.348;2023-02-01T14:55:53;99189.28;;;19.48;56.18
76156;BME280;64906;51.290;7.348;2023-02-01T15:03:45;99190.66;;;19.50;56.24
76156;BME280;64906;51.290;7.348;2023-02-01T15:06:54;99194.50;;;19.49;56.14
76156;BME280;64906;51.290;7.348;2023-02-01T15:09:32;99189.00;;;19.54;56.22
76156;BME280;64906;51.290;7.348;2023-02-01T15:12:24;99191.22;;;19.52;56.29
76156;BME280;64906;51.290;7.348;2023-02-01T15:15:16;99196.69;;;19.52;56.44
76156;BME280;64906;51.290;7.348;2023-02-01T15:17:53;99203.25;;;19.56;56.16
76156;BME280;64906;51.290;7.348;2023-02-01T15:20:23;99196.13;;;19.55;56.29
76156;BME280;64906;51.290;7.348;2023-02-01T15:23:03;99211.19;;;19.58;56.22
76156;BME280;64906;51.290;7.348;2023-02-01T15:25:35;99212.00;;;19.53;56.24
76156;BME280;64906;51.290;7.348;2023-02-01T15:28:02;99209.28;;;19.53;56.72
76156;BME280;64906;51.290;7.348;2023-02-01T15:30:31;99206.00;;;19.36;56.20
76156;BME280;64906;51.290;7.348;2023-02-01T15:35:45;99202.75;;;19.29;57.14
76156;BME280;64906;51.290;7.348;2023-02-01T15:43:29;99213.13;;;19.57;56.19